| time (UTC) | temp F | wind direction | speed MPH | gust MPH | rain 1hr in | rain 24hr in | rain mn in | humidity % | barometer mb |
| 20260507024951 | 47 | 182 | 1.0 | 2.0 | 0.00 | 0.17 | 0.00 | 99 | 1010.2 |
| 20260507024422 | 47 | 221 | 2.0 | 5.0 | 0.00 | 0.17 | 0.00 | 99 | 1010.2 |
| 20260507023851 | 47 | 312 | 2.0 | 4.0 | 0.00 | 0.17 | 0.00 | 99 | 1010.2 |
| 20260507023321 | 47 | 154 | 1.0 | 2.0 | 0.00 | 0.17 | 0.00 | 99 | 1010.2 |
| 20260507022751 | 47 | 154 | 2.0 | 3.0 | 0.00 | 0.18 | 0.00 | 99 | 1010.1 |
| 20260507022221 | 47 | 13 | 2.0 | 8.0 | 0.00 | 0.18 | 0.00 | 99 | 1010.1 |
| 20260507021651 | 47 | 177 | 3.0 | 7.0 | 0.00 | 0.18 | 0.00 | 99 | 1010.1 |
| 20260507021121 | 47 | 184 | 6.0 | 13.0 | 0.00 | 0.18 | 0.00 | 99 | 1010.1 |
| 20260507020551 | 47 | 169 | 1.0 | 2.0 | 0.00 | 0.18 | 0.00 | 99 | 1010.0 |
| 20260507015552 | 47 | 337 | 2.0 | 3.0 | 0.00 | 0.19 | 0.00 | 99 | 1009.9 |
| 20260507015022 | 48 | 169 | 3.0 | 6.0 | 0.00 | 0.19 | 0.00 | 99 | 1009.9 |
| 20260507014451 | 48 | 135 | 1.0 | 3.0 | 0.00 | 0.19 | 0.00 | 99 | 1009.9 |
| 20260507013921 | 48 | 135 | 4.0 | 7.0 | 0.00 | 0.19 | 0.00 | 99 | 1009.9 |
| 20260507013352 | 48 | 279 | 4.0 | 10.0 | 0.00 | 0.19 | 0.00 | 99 | 1009.9 |
| 20260507012821 | 48 | 337 | 3.0 | 7.0 | 0.00 | 0.20 | 0.00 | 99 | 1009.9 |
| 20260507012251 | 48 | 267 | 2.0 | 3.0 | 0.01 | 0.20 | 0.00 | 99 | 1009.8 |
| 20260507011721 | 48 | 175 | 2.0 | 6.0 | 0.01 | 0.20 | 0.00 | 99 | 1009.8 |
| 20260507011151 | 48 | 337 | 2.0 | 3.0 | 0.01 | 0.20 | 0.00 | 99 | 1009.8 |
| 20260507010622 | 48 | 39 | 2.0 | 5.0 | 0.01 | 0.20 | 0.00 | 99 | 1009.7 |
| 20260507010051 | 48 | 207 | 2.0 | 4.0 | 0.01 | 0.20 | 0.00 | 99 | 1009.6 |
| 20260507005521 | 48 | 350 | 4.0 | 8.0 | 0.01 | 0.20 | 0.00 | 99 | 1009.6 |
| 20260507004952 | 48 | 26 | 4.0 | 6.0 | 0.01 | 0.20 | 0.00 | 99 | 1009.5 |
| 20260507004421 | 48 | 182 | 2.0 | 4.0 | 0.01 | 0.20 | 0.00 | 99 | 1009.5 |
| 20260507003851 | 48 | 182 | 3.0 | 7.0 | 0.01 | 0.20 | 0.00 | 99 | 1009.5 |
| 20260507003321 | 48 | 179 | 2.0 | 4.0 | 0.01 | 0.22 | 0.00 | 99 | 1009.5 |
| 20260507002751 | 48 | 205 | 2.0 | 4.0 | 0.01 | 0.22 | 0.00 | 99 | 1009.5 |
| 20260507002221 | 48 | 191 | 2.0 | 5.0 | 0.00 | 0.20 | 0.00 | 99 | 1009.5 |
| 20260507001651 | 48 | 341 | 2.0 | 5.0 | 0.00 | 0.20 | 0.00 | 99 | 1009.4 |
| 20260507001121 | 48 | 150 | 2.0 | 4.0 | 0.00 | 0.22 | 0.00 | 99 | 1009.4 |
| 20260507000551 | 48 | 182 | 2.0 | 5.0 | 0.00 | 0.22 | 0.00 | 99 | 1009.4 |
| 20260507000022 | 48 | 177 | 2.0 | 4.0 | 0.00 | 0.22 | 0.00 | 99 | 1009.3 |
| 20260506235451 | 48 | 197 | 2.0 | 4.0 | 0.00 | 0.22 | 0.00 | 99 | 1009.3 |
| 20260506234922 | 48 | 187 | 2.0 | 4.0 | 0.00 | 0.22 | 0.00 | 99 | 1009.3 |
| 20260506234351 | 48 | 180 | 2.0 | 4.0 | 0.00 | 0.23 | 0.00 | 99 | 1009.3 |
| 20260506233821 | 48 | 196 | 3.0 | 5.0 | 0.00 | 0.23 | 0.00 | 99 | 1009.3 |
| 20260506233251 | 48 | 179 | 2.0 | 4.0 | 0.00 | 0.23 | 0.00 | 99 | 1009.3 |
| 20260506232721 | 48 | 180 | 1.0 | 2.0 | 0.00 | 0.23 | 0.00 | 99 | 1009.3 |
| 20260506232151 | 48 | 184 | 2.0 | 3.0 | 0.00 | 0.24 | 0.00 | 99 | 1009.3 |
| 20260506231621 | 48 | 189 | 2.0 | 2.0 | 0.00 | 0.24 | 0.00 | 99 | 1009.3 |
| 20260506231051 | 48 | 180 | 2.0 | 2.0 | 0.00 | 0.24 | 0.00 | 99 | 1009.3 |
| 20260506230521 | 48 | 180 | 2.0 | 5.0 | 0.00 | 0.24 | 0.00 | 99 | 1009.2 |
| 20260506225951 | 48 | 76 | 2.0 | 2.0 | 0.00 | 0.24 | 0.00 | 99 | 1009.1 |
| 20260506225422 | 48 | 197 | 1.0 | 2.0 | 0.00 | 0.24 | 0.00 | 99 | 1009.1 |
| 20260506224851 | 48 | 180 | 1.0 | 4.0 | 0.00 | 0.24 | 0.00 | 99 | 1009.1 |
| 20260506224321 | 48 | 182 | 1.0 | 2.0 | 0.00 | 0.26 | 0.00 | 99 | 1009.1 |
| 20260506223751 | 48 | 180 | 1.0 | 2.0 | 0.00 | 0.26 | 0.00 | 99 | 1009.0 |
| 20260506223221 | 48 | 181 | 2.0 | 4.0 | 0.00 | 0.26 | 0.00 | 99 | 1009.0 |
| 20260506222652 | 48 | 323 | 2.0 | 5.0 | 0.00 | 0.26 | 0.00 | 99 | 1008.9 |
| 20260506222121 | 48 | 185 | 2.0 | 3.0 | 0.00 | 0.27 | 0.00 | 99 | 1008.9 |
| 20260506221551 | 48 | 18 | 2.0 | 5.0 | 0.00 | 0.27 | 0.00 | 99 | 1008.8 |
| 20260506221021 | 48 | 36 | 1.0 | 4.0 | 0.00 | 0.27 | 0.00 | 99 | 1008.8 |
| 20260506220451 | 48 | 280 | 3.0 | 8.0 | 0.00 | 0.28 | 0.00 | 99 | 1008.7 |
| 20260506215922 | 48 | 119 | 2.0 | 3.0 | 0.01 | 0.28 | 0.00 | 99 | 1008.7 |
| 20260506215351 | 48 | 78 | 3.0 | 4.0 | 0.01 | 0.28 | 0.00 | 99 | 1008.7 |
| 20260506214821 | 49 | 276 | 4.0 | 8.0 | 0.01 | 0.28 | 0.00 | 99 | 1008.6 |
| 20260506214251 | 49 | 350 | 3.0 | 7.0 | 0.01 | 0.28 | 0.00 | 99 | 1008.6 |
| 20260506213722 | 49 | 2 | 2.0 | 3.0 | 0.01 | 0.28 | 0.00 | 99 | 1008.6 |
| 20260506213151 | 49 | 149 | 2.0 | 2.0 | 0.01 | 0.30 | 0.00 | 99 | 1008.5 |
| 20260506212621 | 49 | 323 | 1.0 | 3.0 | 0.01 | 0.30 | 0.00 | 99 | 1008.4 |
| 20260506212051 | 49 | 149 | 2.0 | 5.0 | 0.01 | 0.30 | 0.00 | 99 | 1008.4 |
| 20260506211521 | 49 | 327 | 2.0 | 4.0 | 0.01 | 0.31 | 0.00 | 99 | 1008.3 |
| 20260506210951 | 49 | 2 | 1.0 | 3.0 | 0.01 | 0.31 | 0.00 | 99 | 1008.3 |
| 20260506210421 | 49 | 184 | 3.0 | 10.0 | 0.01 | 0.31 | 0.00 | 99 | 1008.3 |
| 20260506205852 | 49 | 190 | 1.0 | 2.0 | 0.00 | 0.31 | 0.00 | 99 | 1008.3 |
| 20260506205321 | 49 | 207 | 2.0 | 5.0 | 0.00 | 0.31 | 0.00 | 99 | 1008.3 |
| 20260506204751 | 49 | 237 | 2.0 | 2.0 | 0.00 | 0.31 | 0.00 | 99 | 1008.3 |
| 20260506204222 | 49 | 175 | 1.0 | 2.0 | 0.00 | 0.31 | 0.00 | 99 | 1008.3 |
| 20260506203651 | 49 | 224 | 1.0 | 3.0 | 0.00 | 0.32 | 0.00 | 99 | 1008.3 |
| 20260506203121 | 49 | 36 | 2.0 | 2.0 | 0.00 | 0.32 | 0.00 | 99 | 1008.2 |
| 20260506202551 | 49 | 175 | 2.0 | 2.0 | 0.00 | 0.32 | 0.00 | 99 | 1008.1 |
| 20260506202021 | 49 | 188 | 2.0 | 3.0 | 0.00 | 0.33 | 0.00 | 99 | 1008.0 |
| 20260506201451 | 49 | 207 | 1.0 | 2.0 | 0.00 | 0.33 | 0.00 | 99 | 1008.0 |
| 20260506200921 | 49 | 189 | 2.0 | 3.0 | 0.00 | 0.35 | 0.00 | 99 | 1008.0 |
| 20260506200351 | 49 | 193 | 2.0 | 4.0 | 0.00 | 0.35 | 0.00 | 99 | 1008.0 |
| 20260506195821 | 49 | 202 | 2.0 | 2.0 | 0.00 | 0.35 | 0.00 | 99 | 1008.0 |
| 20260506195251 | 49 | 260 | 2.0 | 3.0 | 0.00 | 0.35 | 0.00 | 99 | 1007.9 |
| 20260506194721 | 49 | 179 | 1.0 | 2.0 | 0.00 | 0.35 | 0.00 | 99 | 1007.9 |
| 20260506194151 | 49 | 177 | 1.0 | 2.0 | 0.00 | 0.36 | 0.00 | 99 | 1007.9 |
| 20260506193621 | 49 | 197 | 2.0 | 3.0 | 0.00 | 0.36 | 0.00 | 99 | 1007.8 |
| 20260506193051 | 49 | 179 | 2.0 | 2.0 | 0.00 | 0.37 | 0.00 | 99 | 1007.8 |
| 20260506192522 | 50 | 192 | 3.0 | 5.0 | 0.00 | 0.37 | 0.00 | 99 | 1007.7 |
| 20260506191952 | 50 | 195 | 5.0 | 8.0 | 0.00 | 0.39 | 0.00 | 99 | 1007.6 |
| 20260506191422 | 50 | 184 | 3.0 | 6.0 | 0.00 | 0.39 | 0.00 | 99 | 1007.5 |
| 20260506190851 | 50 | 328 | 3.0 | 5.0 | 0.00 | 0.39 | 0.00 | 99 | 1007.5 |
| 20260506190322 | 50 | 188 | 2.0 | 5.0 | 0.01 | 0.39 | 0.00 | 99 | 1007.4 |
| 20260506185751 | 50 | 175 | 2.0 | 4.0 | 0.01 | 0.39 | 0.00 | 99 | 1007.3 |
| 20260506185221 | 50 | 343 | 2.0 | 4.0 | 0.01 | 0.39 | 0.00 | 99 | 1007.3 |
| 20260506184651 | 50 | 327 | 2.0 | 5.0 | 0.01 | 0.43 | 0.00 | 99 | 1007.3 |
| 20260506184121 | 50 | 120 | 3.0 | 7.0 | 0.01 | 0.43 | 0.00 | 99 | 1007.2 |
| 20260506183551 | 50 | 341 | 2.0 | 6.0 | 0.01 | 0.43 | 0.00 | 99 | 1007.2 |
| 20260506183021 | 50 | 36 | 4.0 | 7.0 | 0.01 | 0.43 | 0.00 | 99 | 1007.0 |
| 20260506182452 | 50 | 181 | 4.0 | 8.0 | 0.01 | 0.43 | 0.00 | 99 | 1007.0 |
| 20260506181921 | 50 | 356 | 2.0 | 4.0 | 0.01 | 0.43 | 0.00 | 99 | 1006.9 |
| 20260506181351 | 50 | 206 | 2.0 | 5.0 | 0.01 | 0.47 | 0.00 | 99 | 1006.9 |
| 20260506180821 | 50 | 163 | 3.0 | 6.0 | 0.01 | 0.47 | 0.00 | 99 | 1006.8 |
| 20260506180252 | 50 | 171 | 1.0 | 4.0 | 0.00 | 0.47 | 0.00 | 99 | 1006.8 |
| 20260506175721 | 50 | 277 | 2.0 | 6.0 | 0.00 | 0.47 | 0.00 | 99 | 1006.8 |
| 20260506175151 | 50 | 162 | 3.0 | 5.0 | 0.00 | 0.47 | 0.00 | 99 | 1006.7 |
| 20260506174621 | 50 | 181 | 3.0 | 5.0 | 0.00 | 0.47 | 0.00 | 99 | 1006.7 |
| 20260506174051 | 50 | 255 | 2.0 | 3.0 | 0.00 | 0.47 | 0.00 | 99 | 1006.7 |
| 20260506173521 | 50 | 219 | 2.0 | 5.0 | 0.00 | 0.47 | 0.00 | 99 | 1006.5 |
| 20260506172951 | 50 | 174 | 2.0 | 8.0 | 0.00 | 0.51 | 0.00 | 99 | 1006.5 |
| 20260506172421 | 50 | 183 | 1.0 | 4.0 | 0.00 | 0.51 | 0.00 | 99 | 1006.5 |
| 20260506171851 | 50 | 183 | 4.0 | 10.0 | 0.00 | 0.51 | 0.00 | 99 | 1006.5 |
| 20260506171321 | 50 | 212 | 2.0 | 7.0 | 0.00 | 0.51 | 0.00 | 99 | 1006.4 |
| 20260506170751 | 51 | 168 | 2.0 | 5.0 | 0.00 | 0.51 | 0.00 | 99 | 1006.4 |
| 20260506170221 | 51 | 172 | 2.0 | 3.0 | 0.00 | 0.51 | 0.00 | 99 | 1006.4 |
| 20260506165651 | 51 | 168 | 2.0 | 5.0 | 0.00 | 0.51 | 0.00 | 99 | 1006.4 |
| 20260506165121 | 51 | 200 | 2.0 | 8.0 | 0.00 | 0.51 | 0.00 | 99 | 1006.4 |
| 20260506164551 | 51 | 179 | 4.0 | 8.0 | 0.00 | 0.51 | 0.00 | 99 | 1006.3 |
| 20260506164021 | 51 | 189 | 3.0 | 7.0 | 0.01 | 0.51 | 0.00 | 99 | 1006.2 |
| 20260506163452 | 51 | 189 | 2.0 | 3.0 | 0.01 | 0.51 | 0.00 | 99 | 1006.2 |
| 20260506162921 | 51 | 188 | 2.0 | 3.0 | 0.01 | 0.51 | 0.00 | 99 | 1006.2 |
| 20260506162351 | 51 | 149 | 2.0 | 6.0 | 0.01 | 0.51 | 0.00 | 99 | 1006.1 |
| 20260506161821 | 51 | 76 | 2.0 | 4.0 | 0.01 | 0.51 | 0.00 | 99 | 1006.1 |
| 20260506161251 | 51 | 214 | 1.0 | 3.0 | 0.01 | 0.51 | 0.00 | 99 | 1006.1 |
| 20260506160721 | 51 | 189 | 2.0 | 3.0 | 0.01 | 0.51 | 0.00 | 99 | 1006.1 |
| 20260506160151 | 51 | 190 | 2.0 | 6.0 | 0.01 | 0.51 | 0.00 | 99 | 1006.1 |
| 20260506155622 | 51 | 192 | 2.0 | 5.0 | 0.01 | 0.51 | 0.00 | 99 | 1006.1 |
| 20260506155051 | 51 | 179 | 3.0 | 11.0 | 0.01 | 0.51 | 0.00 | 99 | 1006.0 |
| 20260506154522 | 52 | 194 | 2.0 | 6.0 | 0.00 | 0.51 | 0.00 | 99 | 1006.0 |
| 20260506153951 | 52 | 174 | 4.0 | 10.0 | 0.00 | 0.51 | 0.00 | 99 | 1006.0 |
| 20260506153421 | 52 | 184 | 2.0 | 6.0 | 0.00 | 0.51 | 0.00 | 99 | 1005.9 |
| 20260506152851 | 52 | 168 | 3.0 | 4.0 | 0.00 | 0.51 | 0.00 | 99 | 1005.9 |
| 20260506152321 | 52 | 164 | 4.0 | 10.0 | 0.00 | 0.51 | 0.00 | 99 | 1005.9 |
| 20260506151751 | 52 | 167 | 2.0 | 5.0 | 0.00 | 0.51 | 0.00 | 99 | 1005.9 |
| 20260506151221 | 52 | 182 | 3.0 | 7.0 | 0.00 | 0.51 | 0.00 | 99 | 1005.9 |
| 20260506150651 | 52 | 195 | 3.0 | 8.0 | 0.00 | 0.51 | 0.00 | 99 | 1005.8 |
| 20260506150121 | 52 | 105 | 3.0 | 6.0 | 0.01 | 0.51 | 0.00 | 99 | 1005.8 |
| 20260506145551 | 52 | 196 | 1.0 | 3.0 | 0.01 | 0.51 | 0.00 | 99 | 1005.8 |
| 20260506145021 | 52 | 179 | 2.0 | 6.0 | 0.01 | 0.51 | 0.00 | 99 | 1005.7 |
| 20260506144451 | 52 | 167 | 3.0 | 8.0 | 0.01 | 0.51 | 0.00 | 99 | 1005.6 |
| 20260506143922 | 52 | 182 | 4.0 | 6.0 | 0.01 | 0.51 | 0.00 | 99 | 1005.6 |
| 20260506143351 | 53 | 152 | 3.0 | 10.0 | 0.01 | 0.51 | 0.00 | 99 | 1005.6 |
| 20260506142821 | 53 | 181 | 4.0 | 9.0 | 0.01 | 0.51 | 0.00 | 99 | 1005.6 |
| 20260506142251 | 53 | 162 | 7.0 | 11.0 | 0.01 | 0.51 | 0.00 | 99 | 1005.6 |
| 20260506141721 | 53 | 182 | 4.0 | 7.0 | 0.01 | 0.51 | 0.00 | 99 | 1005.6 |
| 20260506141151 | 53 | 166 | 4.0 | 7.0 | 0.01 | 0.51 | 0.00 | 99 | 1005.6 |
| 20260506140621 | 53 | 161 | 3.0 | 6.0 | 0.00 | 0.51 | 0.00 | 99 | 1005.6 |
| 20260506140051 | 53 | 184 | 4.0 | 8.0 | 0.00 | 0.51 | 0.00 | 99 | 1005.5 |
| 20260506135521 | 53 | 193 | 3.0 | 8.0 | 0.00 | 0.51 | 0.00 | 99 | 1005.4 |
| 20260506134951 | 53 | 173 | 8.0 | 19.0 | 0.00 | 0.51 | 0.00 | 99 | 1005.4 |
| 20260506134421 | 53 | 160 | 5.0 | 11.0 | 0.00 | 0.51 | 0.00 | 99 | 1005.4 |
| 20260506133851 | 53 | 180 | 7.0 | 15.0 | 0.00 | 0.51 | 0.00 | 99 | 1005.4 |
| 20260506133321 | 53 | 164 | 2.0 | 7.0 | 0.01 | 0.51 | 0.00 | 99 | 1005.4 |
| 20260506132751 | 52 | 128 | 5.0 | 14.0 | 0.01 | 0.51 | 0.00 | 99 | 1005.4 |
| 20260506132221 | 52 | 126 | 3.0 | 8.0 | 0.01 | 0.51 | 0.00 | 99 | 1005.4 |
| 20260506131651 | 52 | 158 | 3.0 | 8.0 | 0.01 | 0.51 | 0.00 | 99 | 1005.3 |
| 20260506131121 | 52 | 137 | 3.0 | 8.0 | 0.01 | 0.51 | 0.00 | 99 | 1005.2 |
| 20260506130551 | 52 | 171 | 5.0 | 10.0 | 0.01 | 0.51 | 0.00 | 99 | 1005.2 |
| 20260506130021 | 53 | 193 | 6.0 | 14.0 | 0.01 | 0.51 | 0.00 | 99 | 1005.1 |
| 20260506125451 | 53 | 158 | 4.0 | 10.0 | 0.01 | 0.51 | 0.00 | 99 | 1005.1 |
| 20260506124921 | 53 | 181 | 5.0 | 8.0 | 0.01 | 0.51 | 0.00 | 99 | 1005.1 |
| 20260506124351 | 53 | 118 | 4.0 | 8.0 | 0.01 | 0.51 | 0.00 | 99 | 1005.0 |
| 20260506123821 | 53 | 184 | 3.0 | 6.0 | 0.01 | 0.51 | 0.00 | 99 | 1005.0 |
| 20260506123251 | 53 | 189 | 3.0 | 8.0 | 0.00 | 0.47 | 0.00 | 99 | 1005.0 |
| 20260506122721 | 53 | 203 | 2.0 | 7.0 | 0.00 | 0.47 | 0.00 | 99 | 1005.0 |
| 20260506122151 | 53 | 189 | 3.0 | 5.0 | 0.00 | 0.47 | 0.00 | 99 | 1005.0 |
| 20260506121621 | 54 | 197 | 3.0 | 4.0 | 0.00 | 0.47 | 0.00 | 99 | 1004.9 |
| 20260506121051 | 54 | 179 | 2.0 | 6.0 | 0.01 | 0.47 | 0.00 | 99 | 1004.9 |
| 20260506120521 | 54 | 158 | 2.0 | 2.0 | 0.01 | 0.47 | 0.00 | 99 | 1004.8 |
| 20260506115951 | 54 | 218 | 4.0 | 12.0 | 0.01 | 0.47 | 0.00 | 99 | 1004.8 |
| 20260506115421 | 54 | 308 | 4.0 | 8.0 | 0.01 | 0.47 | 0.00 | 99 | 1004.8 |
| 20260506114851 | 54 | 181 | 2.0 | 3.0 | 0.01 | 0.47 | 0.00 | 99 | 1004.8 |
| 20260506114321 | 53 | 331 | 3.0 | 7.0 | 0.01 | 0.47 | 0.00 | 99 | 1004.7 |
| 20260506113751 | 53 | 191 | 3.0 | 5.0 | 0.01 | 0.47 | 0.00 | 99 | 1004.7 |
| 20260506113221 | 53 | 228 | 2.0 | 3.0 | 0.01 | 0.47 | 0.00 | 99 | 1004.7 |
| 20260506112651 | 54 | 186 | 4.0 | 6.0 | 0.01 | 0.47 | 0.00 | 99 | 1004.7 |
| 20260506112121 | 54 | 182 | 3.0 | 4.0 | 0.01 | 0.47 | 0.00 | 99 | 1004.7 |
| 20260506111551 | 54 | 199 | 2.0 | 3.0 | 0.01 | 0.47 | 0.00 | 99 | 1004.5 |
| 20260506111021 | 54 | 198 | 2.0 | 6.0 | 0.00 | 0.47 | 0.00 | 99 | 1004.5 |
| 20260506110451 | 54 | 247 | 2.0 | 5.0 | 0.00 | 0.47 | 0.00 | 99 | 1004.4 |
| 20260506105921 | 54 | 340 | 3.0 | 8.0 | 0.01 | 0.47 | 0.00 | 99 | 1004.4 |
| 20260506105351 | 54 | 190 | 3.0 | 8.0 | 0.01 | 0.47 | 0.00 | 99 | 1004.4 |
| 20260506104822 | 54 | 208 | 5.0 | 11.0 | 0.01 | 0.47 | 0.00 | 99 | 1004.4 |
| 20260506104251 | 54 | 180 | 3.0 | 7.0 | 0.01 | 0.47 | 0.00 | 99 | 1004.4 |
| 20260506103721 | 54 | 304 | 3.0 | 7.0 | 0.01 | 0.47 | 0.00 | 99 | 1004.4 |
| 20260506103151 | 54 | 186 | 4.0 | 10.0 | 0.01 | 0.47 | 0.00 | 99 | 1004.4 |
| 20260506102621 | 54 | 181 | 3.0 | 4.0 | 0.01 | 0.47 | 0.00 | 99 | 1004.3 |
| 20260506102051 | 54 | 202 | 4.0 | 10.0 | 0.01 | 0.47 | 0.00 | 99 | 1004.3 |
| 20260506101522 | 55 | 159 | 4.0 | 9.0 | 0.01 | 0.47 | 0.00 | 99 | 1004.1 |
| 20260506100951 | 55 | 84 | 3.0 | 7.0 | 0.01 | 0.47 | 0.00 | 99 | 1004.1 |
| 20260506100421 | 55 | 195 | 3.0 | 6.0 | 0.01 | 0.47 | 0.00 | 99 | 1004.0 |
| 20260506095851 | 55 | 208 | 3.0 | 6.0 | 0.00 | 0.47 | 0.00 | 99 | 1004.0 |
| 20260506095321 | 55 | 135 | 5.0 | 9.0 | 0.00 | 0.47 | 0.00 | 99 | 1004.0 |
| 20260506094751 | 54 | 183 | 1.0 | 2.0 | 0.01 | 0.47 | 0.00 | 99 | 1004.0 |
| 20260506094222 | 54 | 285 | 2.0 | 3.0 | 0.01 | 0.47 | 0.00 | 99 | 1003.9 |
| 20260506093651 | 54 | 157 | 2.0 | 4.0 | 0.01 | 0.47 | 0.00 | 99 | 1003.9 |
| 20260506093121 | 54 | 117 | 4.0 | 7.0 | 0.01 | 0.47 | 0.00 | 99 | 1003.9 |
| 20260506092551 | 54 | 132 | 5.0 | 7.0 | 0.01 | 0.47 | 0.00 | 99 | 1003.9 |
| 20260506092021 | 54 | 234 | 4.0 | 10.0 | 0.01 | 0.47 | 0.00 | 99 | 1003.9 |
| 20260506091451 | 54 | 95 | 7.0 | 13.0 | 0.01 | 0.47 | 0.00 | 99 | 1003.8 |
| 20260506090921 | 54 | 18 | 5.0 | 8.0 | 0.01 | 0.47 | 0.00 | 99 | 1003.8 |
| 20260506090351 | 54 | 192 | 2.0 | 6.0 | 0.01 | 0.47 | 0.00 | 99 | 1003.8 |
| 20260506085821 | 54 | 109 | 1.0 | 3.0 | 0.01 | 0.47 | 0.00 | 99 | 1003.8 |
| 20260506085251 | 53 | 196 | 3.0 | 8.0 | 0.02 | 0.47 | 0.00 | 99 | 1003.8 |
| 20260506084721 | 53 | 284 | 3.0 | 5.0 | 0.01 | 0.47 | 0.00 | 99 | 1003.8 |
| 20260506084151 | 53 | 113 | 2.0 | 6.0 | 0.01 | 0.47 | 0.00 | 99 | 1003.8 |
| 20260506083621 | 53 | 76 | 2.0 | 12.0 | 0.01 | 0.47 | 0.00 | 99 | 1003.7 |
| 20260506083051 | 53 | 150 | 2.0 | 2.0 | 0.01 | 0.47 | 0.00 | 99 | 1003.6 |
| 20260506082521 | 53 | 148 | 1.0 | 2.0 | 0.01 | 0.47 | 0.00 | 99 | 1003.6 |
| 20260506081951 | 53 | 149 | 2.0 | 4.0 | 0.01 | 0.47 | 0.00 | 99 | 1003.5 |
| 20260506081421 | 53 | 87 | 2.0 | 4.0 | 0.01 | 0.47 | 0.00 | 99 | 1003.5 |
| 20260506080852 | 53 | 161 | 1.0 | 1.0 | 0.01 | 0.47 | 0.00 | 99 | 1003.4 |
| 20260506080321 | 53 | 99 | 1.0 | 4.0 | 0.01 | 0.47 | 0.00 | 99 | 1003.4 |
| 20260506073022 | 53 | 195 | 1.0 | 2.0 | 0.01 | 0.43 | 0.00 | 99 | 1003.3 |
| 20260506072452 | 53 | 153 | 1.0 | 4.0 | 0.01 | 0.43 | 0.00 | 99 | 1003.2 |
| 20260506071921 | 53 | 197 | 2.0 | 4.0 | 0.01 | 0.43 | 0.00 | 99 | 1003.2 |
| 20260506071351 | 53 | 226 | 0.0 | 1.0 | 0.02 | 0.43 | 0.00 | 99 | 1003.2 |
| 20260506070822 | 53 | 223 | 2.0 | 5.0 | 0.02 | 0.43 | 0.00 | 99 | 1003.2 |
| 20260506070252 | 52 | 236 | 1.0 | 2.0 | 0.02 | 0.43 | 0.00 | 99 | 1003.2 |
| 20260506062421 | 52 | 120 | 0.0 | 3.0 | 0.02 | 0.43 | 0.00 | 99 | 1003.2 |
| 20260506061851 | 52 | 261 | 3.0 | 5.0 | 0.02 | 0.43 | 0.00 | 99 | 1003.2 |
| 20260506061321 | 52 | 189 | 0.0 | 1.0 | 0.01 | 0.43 | 0.00 | 99 | 1003.2 |
| 20260506060751 | 52 | 195 | 0.0 | 0.0 | 0.01 | 0.43 | 0.00 | 99 | 1003.2 |
| 20260506060222 | 52 | 187 | 0.0 | 2.0 | 0.01 | 0.43 | 0.00 | 99 | 1003.2 |
| 20260506051252 | 52 | 176 | 1.0 | 2.0 | 0.01 | 0.43 | 0.00 | 99 | 1003.2 |
| 20260506050721 | 52 | 165 | 1.0 | 1.0 | 0.01 | 0.43 | 0.00 | 99 | 1003.2 |
| 20260506050151 | 52 | 173 | 1.0 | 2.0 | 0.02 | 0.43 | 0.00 | 99 | 1003.2 |
| 20260506045051 | 51 | 194 | 0.0 | 0.0 | 0.02 | 0.43 | 0.00 | 99 | 1003.2 |
| 20260506044522 | 51 | 205 | 1.0 | 1.0 | 0.01 | 0.39 | 0.00 | 99 | 1003.2 |
| 20260506043951 | 51 | 205 | 0.0 | 0.0 | 0.01 | 0.39 | 0.00 | 99 | 1003.1 |
| 20260506043421 | 51 | 172 | 0.0 | 1.0 | 0.01 | 0.39 | 0.00 | 99 | 1003.1 |
| 20260506042851 | 51 | 205 | 1.0 | 1.0 | 0.02 | 0.39 | 0.00 | 99 | 1003.1 |
| 20260506042321 | 51 | 165 | 0.0 | 1.0 | 0.02 | 0.39 | 0.00 | 99 | 1003.1 |
| 20260506041751 | 52 | 165 | 1.0 | 3.0 | 0.02 | 0.39 | 0.00 | 99 | 1003.1 |
| 20260506041222 | 52 | 328 | 0.0 | 1.0 | 0.02 | 0.39 | 0.00 | 99 | 1003.1 |
| 20260506040651 | 52 | 312 | 1.0 | 3.0 | 0.02 | 0.39 | 0.00 | 99 | 1003.1 |
| 20260506040121 | 52 | 318 | 1.0 | 2.0 | 0.01 | 0.39 | 0.00 | 99 | 1003.1 |
| 20260506035551 | 52 | 216 | 2.0 | 6.0 | 0.02 | 0.39 | 0.00 | 99 | 1003.1 |
| 20260506035021 | 52 | 259 | 3.0 | 10.0 | 0.02 | 0.39 | 0.00 | 99 | 1003.1 |
| 20260506034451 | 52 | 84 | 1.0 | 2.0 | 0.02 | 0.39 | 0.00 | 99 | 1003.2 |
| 20260506033921 | 52 | 166 | 1.0 | 2.0 | 0.02 | 0.39 | 0.00 | 99 | 1003.2 |
| 20260506033351 | 52 | 173 | 1.0 | 2.0 | 0.01 | 0.39 | 0.00 | 99 | 1003.2 |
| 20260506032822 | 52 | 81 | 1.0 | 2.0 | 0.02 | 0.39 | 0.00 | 99 | 1003.2 |
| 20260506032251 | 52 | 171 | 2.0 | 3.0 | 0.02 | 0.39 | 0.00 | 99 | 1003.2 |
| 20260506031721 | 52 | 143 | 2.0 | 3.0 | 0.02 | 0.39 | 0.00 | 99 | 1003.3 |
| 20260506031151 | 52 | 171 | 2.0 | 4.0 | 0.02 | 0.39 | 0.00 | 99 | 1003.4 |
| 20260506030621 | 52 | 187 | 1.0 | 2.0 | 0.02 | 0.39 | 0.00 | 99 | 1003.5 |
| 20260506030051 | 52 | 167 | 1.0 | 2.0 | 0.02 | 0.39 | 0.00 | 99 | 1003.5 |
| 20260506025521 | 52 | 232 | 1.0 | 2.0 | 0.02 | 0.37 | 0.00 | 99 | 1003.7 |